EA3AGY-13 Weather Reports


Display with metric or nautical units.
time (UTC)temp
F
wind
direction
speed
MPH
gust
MPH
rain 1hr
in
rain 24hr
in
rain mn
in
humidity
%
barometer
mb
20260506144910 54 22 2.0 5.0 0.00 0.00 0.00 21 1009.3
20260506143908 54 135 2.0 4.0 0.00 0.00 0.00 24 1009.4
20260506140900 52 33 3.0 8.0 0.00 0.00 0.00 29 1009.5
20260506135859 54 90 4.0 5.0 0.00 0.00 0.00 27 1009.5
20260506134856 53 67 3.0 7.0 0.00 0.00 0.00 27 1009.6
20260506132851 51 67 3.0 7.0 0.00 0.00 0.00 28 1009.8
20260506125844 54 45 2.0 4.0 0.00 0.00 0.00 25 1009.9
20260506115830 52 225 2.0 5.0 0.00 0.00 0.07 25 1010.0
20260506114829 53 258 2.0 5.0 0.00 0.00 0.07 26 1009.9
20260506112823 54 315 2.0 7.0 0.00 0.00 0.07 29 1009.8
20260506111820 53 270 2.0 7.0 0.00 0.00 0.07 29 1009.9
20260506110818 52 281 8.0 8.0 0.00 0.00 0.07 28 1010.0
20260506105815 50 292 7.0 7.0 0.00 0.00 0.07 28 1010.0
20260506104813 51 337 2.0 8.0 0.00 0.00 0.07 29 1010.0
20260506103812 52 326 3.0 7.0 0.00 0.00 0.07 31 1010.0
20260506102809 51 202 2.0 8.0 0.00 0.00 0.07 31 1009.9
20260506101808 51 180 2.0 8.0 0.00 0.00 0.07 31 1009.9
20260506094759 50 270 6.0 6.0 0.00 0.00 0.07 30 1009.9
20260506092755 49 270 2.0 7.0 0.00 0.00 0.07 28 1009.6
20260506090749 50 315 2.0 9.0 0.00 0.00 0.07 26 1009.2
20260506085747 49 315 4.0 8.0 0.00 0.00 0.07 24 1009.3
20260506084746 49 315 4.0 6.0 0.00 0.00 0.07 28 1009.2
20260506081738 49 247 3.0 4.0 0.00 0.00 0.07 35 1009.3
20260506072726 46 315 2.0 4.0 0.00 0.00 0.07 37 1009.3
20260506071724 46 202 0.0 3.0 0.00 0.00 0.07 37 1009.3
20260506070721 45 292 1.0 3.0 0.00 0.00 0.07 37 1009.3
20260506061710 43 0 0.0 6.0 0.00 0.00 0.07 37 1009.0
20260506060707 42 270 0.0 2.0 0.00 0.00 0.07 40 1009.0
20260506050652 36 90 1.0 1.0 0.00 0.00 0.07 45 1008.6
20260506042646 36 90 1.0 2.0 0.00 0.00 0.07 47 1008.5
20260506035636 36 45 0.0 0.0 0.00 0.00 0.07 44 1008.6
20260506032629 36 90 1.0 2.0 0.00 0.00 0.07 50 1008.6
20260506031626 36 90 2.0 2.0 0.00 0.00 0.07 52 1008.6
20260506023617 36 90 1.0 2.0 0.00 0.00 0.07 49 1008.7
20260506022615 36 45 0.0 3.0 0.00 0.00 0.07 47 1008.6
20260506015608 37 45 0.0 0.0 0.00 0.00 0.07 44 1008.7
20260506014605 37 90 1.0 1.0 0.00 0.00 0.07 44 1008.7
20260506011558 36 90 0.0 2.0 0.00 0.00 0.07 48 1008.9
20260506003550 39 90 2.0 3.0 0.00 0.00 0.07 45 1009.1
20260506001544 38 45 0.0 1.0 0.00 0.00 0.07 45 1009.2
20260505234536 38 45 0.0 1.0 0.00 0.00 0.07 46 1009.4
20260505230527 38 45 0.0 0.0 0.00 0.00 0.07 40 1009.5
20260505225525 39 90 0.0 2.0 0.00 0.00 0.07 41 1009.5
20260505222518 39 45 0.0 0.0 0.00 0.00 0.07 41 1009.9
20260505202449 40 45 0.0 0.0 0.00 0.00 0.07 48 1009.7
20260505200444 40 45 0.0 0.0 0.00 0.00 0.07 42 1009.5
20260505195442 41 90 0.0 0.0 0.00 0.00 0.07 37 1009.5
20260505194440 41 67 0.0 0.0 0.00 0.00 0.07 37 1009.3
20260505192435 42 45 0.0 1.0 0.00 0.00 0.07 41 1009.4
20260505190432 43 90 1.0 2.0 0.00 0.00 0.07 36 1009.3
20260505183423 45 45 0.0 0.0 0.00 0.00 0.07 34 1009.1
20260505180416 45 0 0.0 2.0 0.00 0.00 0.07 36 1009.3
20260505174411 42 90 4.0 6.0 0.00 0.00 0.07 42 1009.1
20260505171405 40 56 2.0 9.0 0.00 0.00 0.07 49 1009.5
20260505165400 42 90 8.0 9.0 0.00 0.00 0.00 44 1009.9
20260505153341 50 90 5.0 7.0 0.00 0.00 0.00 27 1009.0
20260505152339 52 78 3.0 7.0 0.00 0.00 0.00 29 1009.1